createdAt,value
2023-04-27T00:00:11.875Z,200.53
2023-04-27T00:01:11.681Z,200.10
2023-04-27T00:02:11.772Z,200.86
2023-04-27T00:03:11.891Z,200.51
2023-04-27T00:04:11.895Z,200.36
2023-04-27T00:05:12.003Z,200.53
2023-04-27T00:06:11.912Z,200.20
2023-04-27T00:07:11.895Z,200.45
2023-04-27T00:08:11.930Z,200.94
2023-04-27T00:09:12.236Z,200.55
2023-04-27T00:10:11.979Z,200.25
2023-04-27T00:11:12.006Z,200.25
2023-04-27T00:12:12.048Z,200.26
2023-04-27T00:13:12.109Z,200.47
2023-04-27T00:14:12.118Z,200.11
2023-04-27T00:15:12.152Z,199.70
2023-04-27T00:16:12.186Z,199.41
2023-04-27T00:17:12.212Z,199.52
2023-04-27T00:18:12.238Z,199.68
2023-04-27T00:19:12.485Z,199.08
2023-04-27T00:20:12.346Z,198.93
2023-04-27T00:21:12.338Z,198.84
2023-04-27T00:22:12.370Z,198.45
2023-04-27T00:23:12.414Z,199.10
2023-04-27T00:24:12.432Z,198.99
2023-04-27T00:25:12.613Z,199.05
2023-04-27T00:26:12.502Z,199.10
2023-04-27T00:27:12.551Z,198.42
2023-04-27T00:28:12.620Z,198.16
2023-04-27T00:29:12.824Z,198.93
2023-04-27T00:30:12.637Z,198.77
2023-04-27T00:31:12.663Z,199.26
2023-04-27T00:32:12.720Z,198.13
2023-04-27T00:33:12.749Z,198.13
2023-04-27T00:34:12.764Z,199.07
2023-04-27T00:35:12.813Z,199.03
2023-04-27T00:36:12.846Z,198.50
2023-04-27T00:37:12.862Z,198.30
2023-04-27T00:38:12.925Z,198.34
2023-04-27T00:39:13.155Z,199.06
2023-04-27T00:40:12.982Z,198.68
2023-04-27T00:41:13.018Z,198.63
2023-04-27T00:42:13.056Z,197.51
2023-04-27T00:43:13.076Z,197.85
2023-04-27T00:44:13.107Z,197.87
2023-04-27T00:45:13.183Z,197.61
2023-04-27T00:46:13.282Z,198.09
2023-04-27T00:47:13.236Z,197.46
2023-04-27T00:48:13.274Z,197.75
2023-04-27T00:49:13.480Z,197.87
2023-04-27T00:50:13.334Z,198.27
2023-04-27T00:51:13.417Z,198.28
2023-04-27T00:52:13.411Z,198.32
2023-04-27T00:53:13.425Z,197.93
2023-04-27T00:54:13.447Z,197.90
2023-04-27T00:55:13.476Z,198.53
2023-04-27T00:56:13.562Z,197.92
2023-04-27T00:57:13.556Z,197.98
2023-04-27T00:58:13.623Z,197.38
2023-04-27T00:59:13.842Z,196.98
2023-04-27T01:00:13.763Z,197.17
2023-04-27T01:01:13.770Z,197.30
2023-04-27T01:02:13.936Z,197.08
2023-04-27T01:03:14.005Z,197.69
2023-04-27T01:04:13.966Z,197.17
2023-04-27T01:05:13.855Z,196.10
2023-04-27T01:06:13.874Z,195.95
2023-04-27T01:07:13.913Z,196.33
2023-04-27T01:08:13.945Z,196.79
2023-04-27T01:09:14.321Z,197.44
2023-04-27T01:10:14.029Z,197.08
2023-04-27T01:11:14.048Z,196.29
2023-04-27T01:12:14.080Z,196.35
2023-04-27T01:13:14.132Z,196.13
2023-04-27T01:14:14.155Z,196.15
2023-04-27T01:15:14.230Z,195.31
2023-04-27T01:16:14.275Z,195.74
2023-04-27T01:17:14.369Z,195.95
2023-04-27T01:18:14.357Z,195.69
2023-04-27T01:19:14.706Z,195.89
2023-04-27T01:20:14.401Z,195.82
2023-04-27T01:21:14.460Z,195.84
2023-04-27T01:22:14.544Z,195.57
2023-04-27T01:23:16.773Z,196.21
2023-04-27T01:24:14.514Z,196.56
2023-04-27T01:25:14.576Z,195.95
2023-04-27T01:26:14.584Z,195.85
2023-04-27T01:27:14.482Z,195.98
2023-04-27T01:28:14.489Z,196.55
2023-04-27T01:29:14.761Z,195.58
2023-04-27T01:30:14.486Z,196.66
2023-04-27T01:31:14.546Z,195.34
2023-04-27T01:32:14.478Z,195.45
2023-04-27T01:33:14.486Z,195.40
2023-04-27T01:34:14.454Z,195.08
2023-04-27T01:35:14.489Z,196.03
2023-04-27T01:36:14.421Z,195.71
2023-04-27T01:37:14.463Z,195.10
2023-04-27T01:38:14.460Z,194.58
2023-04-27T01:39:14.699Z,194.96
2023-04-27T01:40:14.420Z,195.79
2023-04-27T01:41:14.408Z,195.76
2023-04-27T01:42:14.400Z,195.72
2023-04-27T01:43:14.386Z,195.57
2023-04-27T01:44:14.395Z,195.63
2023-04-27T01:45:14.417Z,195.16
2023-04-27T01:46:14.420Z,195.78
2023-04-27T01:47:14.381Z,194.97
2023-04-27T01:48:14.380Z,195.56
2023-04-27T01:49:14.552Z,195.86
2023-04-27T01:50:14.375Z,194.27
2023-04-27T01:51:14.389Z,194.88
2023-04-27T01:52:14.352Z,195.52
2023-04-27T01:53:14.350Z,194.97
2023-04-27T01:54:14.320Z,195.52
2023-04-27T01:55:14.352Z,194.54
2023-04-27T01:56:14.318Z,195.62
2023-04-27T01:57:14.335Z,195.40
2023-04-27T01:58:14.305Z,194.84
2023-04-27T01:59:14.525Z,194.68
2023-04-27T02:00:14.268Z,194.57
2023-04-27T02:01:14.317Z,195.15
2023-04-27T02:02:14.287Z,193.63
2023-04-27T02:03:14.369Z,195.37
2023-04-27T02:04:14.472Z,195.06
2023-04-27T02:05:14.254Z,195.58
2023-04-27T02:06:14.252Z,194.55
2023-04-27T02:07:14.233Z,195.39
2023-04-27T02:08:14.235Z,195.45
2023-04-27T02:09:14.424Z,195.67
2023-04-27T02:10:14.241Z,194.54
2023-04-27T02:11:14.221Z,194.38
2023-04-27T02:12:14.299Z,194.94
2023-04-27T02:13:14.321Z,194.68
2023-04-27T02:14:14.389Z,194.30
2023-04-27T02:15:14.417Z,194.42
2023-04-27T02:16:14.480Z,193.81
2023-04-27T02:17:14.490Z,193.96
2023-04-27T02:18:14.505Z,194.56
2023-04-27T02:19:14.718Z,194.23
2023-04-27T02:20:14.619Z,194.09
2023-04-27T02:21:14.642Z,194.18
2023-04-27T02:22:14.670Z,194.38
2023-04-27T02:23:14.716Z,194.70
2023-04-27T02:24:14.760Z,194.25
2023-04-27T02:25:14.851Z,193.78
2023-04-27T02:26:14.842Z,193.68
2023-04-27T02:27:14.879Z,193.29
2023-04-27T02:28:14.895Z,194.40
2023-04-27T02:29:15.882Z,194.50
2023-04-27T02:30:15.022Z,193.73
2023-04-27T02:31:15.087Z,193.94
2023-04-27T02:32:15.078Z,193.90
2023-04-27T02:33:15.145Z,193.74
2023-04-27T02:34:15.156Z,193.89
2023-04-27T02:35:15.201Z,193.33
2023-04-27T02:36:15.283Z,193.25
2023-04-27T02:37:15.319Z,194.61
2023-04-27T02:38:15.317Z,193.55
2023-04-27T02:39:15.615Z,194.22
2023-04-27T02:40:15.475Z,193.42
2023-04-27T02:41:15.457Z,193.70
2023-04-27T02:42:15.507Z,193.47
2023-04-27T02:43:15.550Z,193.51
2023-04-27T02:44:15.592Z,192.79
2023-04-27T02:45:15.657Z,193.11
2023-04-27T02:46:15.710Z,193.70
2023-04-27T02:47:15.765Z,192.62
2023-04-27T02:48:15.771Z,192.85
2023-04-27T02:49:16.131Z,192.63
2023-04-27T02:50:15.862Z,193.09
2023-04-27T02:51:15.917Z,192.49
2023-04-27T02:52:15.950Z,193.10
2023-04-27T02:53:15.984Z,193.19
2023-04-27T02:54:16.035Z,192.90
2023-04-27T02:55:23.146Z,193.04
2023-04-27T02:56:16.051Z,193.16
2023-04-27T02:57:16.051Z,193.26
2023-04-27T02:58:16.064Z,193.30
2023-04-27T02:59:16.281Z,193.12
2023-04-27T03:00:16.036Z,192.82
2023-04-27T03:01:16.060Z,192.60
2023-04-27T03:02:16.022Z,192.85
2023-04-27T03:03:16.142Z,192.91
2023-04-27T03:04:16.254Z,193.53
2023-04-27T03:05:16.019Z,193.22
2023-04-27T03:06:15.976Z,193.25
2023-04-27T03:07:15.979Z,192.66
2023-04-27T03:08:15.993Z,192.62
2023-04-27T03:09:16.451Z,193.06
2023-04-27T03:10:15.960Z,193.41
2023-04-27T03:11:15.968Z,192.96
2023-04-27T03:12:15.967Z,193.31
2023-04-27T03:13:15.958Z,192.99
2023-04-27T03:14:15.977Z,193.39
2023-04-27T03:15:15.945Z,192.22
2023-04-27T03:16:16.663Z,192.48
2023-04-27T03:17:15.909Z,192.40
2023-04-27T03:18:15.918Z,191.98
2023-04-27T03:19:16.089Z,192.38
2023-04-27T03:20:15.912Z,192.67
2023-04-27T03:21:15.890Z,192.80
2023-04-27T03:22:15.951Z,193.05
2023-04-27T03:23:15.930Z,192.87
2023-04-27T03:24:15.998Z,192.65
2023-04-27T03:25:16.048Z,192.00
2023-04-27T03:26:16.124Z,192.71
2023-04-27T03:27:16.145Z,192.88
2023-04-27T03:28:16.177Z,193.13
2023-04-27T03:29:16.278Z,192.24
2023-04-27T03:30:16.290Z,192.67
2023-04-27T03:31:16.375Z,193.25
2023-04-27T03:32:16.380Z,192.41
2023-04-27T03:33:16.555Z,192.53
2023-04-27T03:34:16.457Z,192.76
2023-04-27T03:35:16.498Z,193.28
2023-04-27T03:36:16.585Z,192.47
2023-04-27T03:37:16.589Z,192.40
2023-04-27T03:38:16.645Z,192.02
2023-04-27T03:39:16.736Z,192.20
2023-04-27T03:40:16.768Z,191.94
2023-04-27T03:41:16.770Z,191.93
2023-04-27T03:42:16.816Z,192.33
2023-04-27T03:43:16.861Z,191.93
2023-04-27T03:44:16.884Z,192.08
2023-04-27T03:45:16.951Z,192.71
2023-04-27T03:46:17.012Z,192.46
2023-04-27T03:47:17.041Z,192.44
2023-04-27T03:48:17.094Z,193.30
2023-04-27T03:49:17.126Z,192.66
2023-04-27T03:50:17.165Z,192.94
2023-04-27T03:51:17.200Z,192.77
2023-04-27T03:52:17.267Z,192.00
2023-04-27T03:53:17.301Z,192.55
2023-04-27T03:54:17.338Z,192.41
2023-04-27T03:55:17.408Z,192.03
2023-04-27T03:56:17.454Z,191.95
2023-04-27T03:57:17.483Z,192.64
2023-04-27T03:58:17.550Z,192.94
2023-04-27T03:59:17.586Z,192.53
2023-04-27T04:00:17.677Z,191.62
2023-04-27T04:01:17.658Z,190.66
2023-04-27T04:02:17.794Z,191.58
2023-04-27T04:03:18.050Z,191.93
2023-04-27T04:04:17.918Z,191.75
2023-04-27T04:05:17.988Z,191.69
2023-04-27T04:06:17.911Z,191.68
2023-04-27T04:07:17.959Z,191.57
2023-04-27T04:08:18.008Z,191.83
2023-04-27T04:09:18.050Z,191.48
2023-04-27T04:10:18.105Z,192.28
2023-04-27T04:11:18.157Z,190.97
2023-04-27T04:12:18.194Z,191.44
2023-04-27T04:13:18.279Z,191.44
2023-04-27T04:14:18.294Z,191.30
2023-04-27T04:15:18.331Z,191.93
2023-04-27T04:16:18.460Z,191.59
2023-04-27T04:17:18.497Z,191.62
2023-04-27T04:18:18.495Z,192.41
2023-04-27T04:19:19.586Z,191.91
2023-04-27T04:20:18.586Z,191.58
2023-04-27T04:21:18.509Z,191.57
2023-04-27T04:22:18.512Z,191.66
2023-04-27T04:23:18.505Z,190.96
2023-04-27T04:24:18.505Z,191.03
2023-04-27T04:25:18.538Z,191.56
2023-04-27T04:26:18.485Z,191.14
2023-04-27T04:27:18.510Z,191.62
2023-04-27T04:28:18.502Z,191.17
2023-04-27T04:29:18.462Z,191.19
2023-04-27T04:30:18.483Z,191.30
2023-04-27T04:31:18.542Z,191.74
2023-04-27T04:32:18.454Z,192.24
2023-04-27T04:33:18.455Z,191.92
2023-04-27T04:34:18.459Z,191.55
2023-04-27T04:35:18.417Z,191.13
2023-04-27T04:36:18.420Z,191.40
2023-04-27T04:37:18.438Z,191.11
2023-04-27T04:38:18.405Z,191.27
2023-04-27T04:39:18.394Z,191.65
2023-04-27T04:40:18.418Z,190.63
2023-04-27T04:41:18.389Z,190.54
2023-04-27T04:42:18.382Z,190.79
2023-04-27T04:43:18.442Z,191.65
2023-04-27T04:44:18.344Z,190.79
2023-04-27T04:45:18.348Z,191.21
2023-04-27T04:46:18.374Z,190.78
2023-04-27T04:47:18.333Z,190.80
2023-04-27T04:48:18.334Z,190.52
2023-04-27T04:49:18.353Z,191.29
2023-04-27T04:50:18.348Z,191.33
2023-04-27T04:51:18.357Z,191.84
2023-04-27T04:52:18.300Z,191.40
2023-04-27T04:53:18.302Z,190.26
2023-04-27T04:54:18.303Z,191.57
2023-04-27T04:55:18.283Z,191.22
2023-04-27T04:56:18.306Z,191.05
2023-04-27T04:57:18.265Z,190.83
2023-04-27T04:58:18.280Z,191.12
2023-04-27T04:59:18.252Z,190.45
2023-04-27T05:00:18.257Z,190.64
2023-04-27T05:01:18.301Z,191.34
2023-04-27T05:02:18.476Z,191.08
2023-04-27T05:03:18.428Z,191.00
2023-04-27T05:04:18.471Z,190.21
2023-04-27T05:05:18.393Z,190.04
2023-04-27T05:06:18.427Z,190.14
2023-04-27T05:07:22.112Z,190.48
2023-04-27T05:08:19.480Z,190.54
2023-04-27T05:09:18.438Z,190.69
2023-04-27T05:10:18.454Z,190.85
2023-04-27T05:11:18.431Z,190.59
2023-04-27T05:12:18.417Z,190.31
2023-04-27T05:13:18.438Z,191.23
2023-04-27T05:14:18.418Z,191.32
2023-04-27T05:15:18.417Z,191.30
2023-04-27T05:16:18.566Z,191.03
2023-04-27T05:17:18.412Z,191.41
2023-04-27T05:18:18.417Z,191.42
2023-04-27T05:19:18.450Z,191.02
2023-04-27T05:20:18.517Z,192.23
2023-04-27T05:21:18.551Z,192.19
2023-04-27T05:22:18.618Z,191.15
2023-04-27T05:23:18.624Z,191.75
2023-04-27T05:24:18.743Z,191.23
2023-04-27T05:25:18.842Z,191.25
2023-04-27T05:26:18.850Z,191.86
2023-04-27T05:27:18.847Z,192.43
2023-04-27T05:28:18.914Z,192.32
2023-04-27T05:29:18.941Z,193.99
2023-04-27T05:30:19.048Z,193.53
2023-04-27T05:31:19.104Z,194.19
2023-04-27T05:32:19.121Z,194.78
2023-04-27T05:33:19.134Z,194.73
2023-04-27T05:34:19.203Z,195.95
2023-04-27T05:35:19.268Z,194.91
2023-04-27T05:36:19.270Z,195.04
2023-04-27T05:37:19.321Z,197.86
2023-04-27T05:38:19.381Z,199.96
2023-04-27T05:39:19.411Z,200.32
2023-04-27T05:40:19.464Z,202.34
2023-04-27T05:41:19.493Z,205.49
2023-04-27T05:42:20.221Z,206.63
2023-04-27T05:43:19.738Z,208.98
2023-04-27T05:44:19.630Z,211.41
2023-04-27T05:45:19.643Z,213.69
2023-04-27T05:46:19.873Z,216.35
2023-04-27T05:47:19.686Z,222.18
2023-04-27T05:48:19.698Z,225.00
2023-04-27T05:49:19.769Z,227.09
2023-04-27T05:50:19.765Z,229.07
2023-04-27T05:51:19.771Z,232.38
2023-04-27T05:52:19.794Z,236.62
2023-04-27T05:53:20.231Z,246.79
2023-04-27T05:54:19.831Z,249.22
2023-04-27T05:55:19.848Z,249.35
2023-04-27T05:56:19.931Z,250.00
2023-04-27T05:57:19.858Z,249.64
2023-04-27T05:58:19.890Z,249.62
2023-04-27T05:59:19.882Z,250.00
2023-04-27T06:00:20.296Z,250.00
2023-04-27T06:01:19.905Z,249.99
2023-04-27T06:02:20.048Z,250.00
2023-04-27T06:03:19.977Z,250.00
2023-04-27T06:04:20.047Z,249.90
2023-04-27T06:05:19.969Z,249.23
2023-04-27T06:06:19.946Z,250.00
2023-04-27T06:07:19.869Z,250.10
2023-04-27T06:08:20.790Z,250.00
2023-04-27T06:09:19.909Z,250.00
2023-04-27T06:10:19.925Z,249.83
2023-04-27T06:11:19.939Z,249.40
2023-04-27T06:12:19.954Z,249.63
2023-04-27T06:13:19.993Z,249.42
2023-04-27T06:14:20.123Z,249.82
2023-04-27T06:15:20.770Z,250.00
2023-04-27T06:16:20.120Z,249.77
2023-04-27T06:17:20.112Z,249.14
2023-04-27T06:18:20.105Z,249.48
2023-04-27T06:19:20.209Z,250.18
2023-04-27T06:20:20.310Z,249.59
2023-04-27T06:21:20.273Z,249.39
2023-04-27T06:22:20.308Z,249.24
2023-04-27T06:23:20.351Z,249.56
2023-04-27T06:24:20.655Z,249.55
2023-04-27T06:25:20.567Z,250.00
2023-04-27T06:26:20.585Z,249.42
2023-04-27T06:27:20.820Z,249.71
2023-04-27T06:28:20.671Z,249.45
2023-04-27T06:29:20.755Z,249.32
2023-04-27T06:30:20.882Z,249.98
2023-04-27T06:31:20.935Z,249.37
2023-04-27T06:32:20.897Z,250.00
2023-04-27T06:33:20.960Z,249.99
2023-04-27T06:34:21.000Z,249.64
2023-04-27T06:35:21.080Z,250.00
2023-04-27T06:36:21.134Z,249.81
2023-04-27T06:37:21.211Z,248.68
2023-04-27T06:38:21.273Z,247.58
2023-04-27T06:39:21.280Z,249.14
2023-04-27T06:40:21.356Z,248.52
2023-04-27T06:41:21.397Z,248.57
2023-04-27T06:42:21.443Z,247.70
2023-04-27T06:43:21.771Z,247.98
2023-04-27T06:44:21.550Z,248.79
2023-04-27T06:45:21.594Z,247.79
2023-04-27T06:46:21.704Z,248.33
2023-04-27T06:47:21.738Z,247.66
2023-04-27T06:48:21.860Z,247.89
2023-04-27T06:49:21.902Z,247.17
2023-04-27T06:50:21.958Z,247.15
2023-04-27T06:51:22.007Z,245.26
2023-04-27T06:52:22.105Z,245.89
2023-04-27T06:53:22.140Z,246.06
2023-04-27T06:54:22.201Z,246.29
2023-04-27T06:55:22.226Z,245.39
2023-04-27T06:56:22.302Z,245.57
2023-04-27T06:57:22.387Z,245.25
2023-04-27T06:58:22.404Z,244.33
2023-04-27T06:59:22.473Z,244.09
2023-04-27T07:00:22.516Z,244.13
2023-04-27T07:01:22.659Z,243.95
2023-04-27T07:02:24.925Z,244.17
2023-04-27T07:03:22.757Z,243.57
2023-04-27T07:04:22.906Z,243.01
2023-04-27T07:05:22.656Z,241.58
2023-04-27T07:06:22.612Z,241.51
2023-04-27T07:07:22.633Z,241.50
2023-04-27T07:08:22.614Z,240.68
2023-04-27T07:09:27.483Z,240.98
2023-04-27T07:10:23.609Z,241.05
2023-04-27T07:11:22.585Z,241.14
2023-04-27T07:12:22.583Z,240.64
2023-04-27T07:13:22.583Z,239.32
2023-04-27T07:14:22.552Z,238.55
2023-04-27T07:15:22.602Z,238.07
2023-04-27T07:16:22.578Z,238.31
2023-04-27T07:17:22.615Z,237.43
2023-04-27T07:18:22.789Z,237.31
2023-04-27T07:19:22.534Z,237.18
2023-04-27T07:20:22.539Z,236.18
2023-04-27T07:21:22.579Z,236.48
2023-04-27T07:22:22.540Z,236.34
2023-04-27T07:23:22.614Z,235.26
2023-04-27T07:24:22.585Z,235.07
2023-04-27T07:25:22.680Z,233.52
2023-04-27T07:26:22.754Z,234.34
2023-04-27T07:27:22.681Z,233.59
2023-04-27T07:28:22.713Z,233.73
2023-04-27T07:29:27.187Z,233.86
2023-04-27T07:30:22.737Z,233.90
2023-04-27T07:31:22.731Z,233.28
2023-04-27T07:32:22.862Z,233.53
2023-04-27T07:33:22.753Z,233.84
2023-04-27T07:34:22.730Z,235.15
2023-04-27T07:35:22.674Z,237.20
2023-04-27T07:36:22.693Z,239.18
2023-04-27T07:37:22.693Z,239.01
2023-04-27T07:38:22.787Z,239.50
2023-04-27T07:39:24.295Z,238.59
2023-04-27T07:40:22.644Z,235.65
2023-04-27T07:41:22.857Z,235.53
2023-04-27T07:42:22.743Z,231.26
2023-04-27T07:43:22.811Z,231.02
2023-04-27T07:44:22.918Z,231.11
2023-04-27T07:45:23.028Z,231.97
2023-04-27T07:46:23.899Z,231.52
2023-04-27T07:47:23.055Z,232.68
2023-04-27T07:48:23.355Z,233.07
2023-04-27T07:49:23.211Z,233.93
2023-04-27T07:50:23.263Z,234.31
2023-04-27T07:51:23.803Z,234.50
2023-04-27T07:52:23.362Z,234.49
2023-04-27T07:53:23.408Z,235.23
2023-04-27T07:54:23.482Z,234.50
2023-04-27T07:55:23.604Z,233.99
2023-04-27T07:56:23.760Z,233.05
2023-04-27T07:57:23.666Z,232.35
2023-04-27T07:58:23.792Z,232.44
2023-04-27T07:59:23.831Z,233.28
2023-04-27T08:00:23.978Z,233.56
2023-04-27T08:01:23.898Z,231.55
2023-04-27T08:02:24.107Z,232.67
2023-04-27T08:03:24.550Z,231.99
2023-04-27T08:04:24.319Z,231.15
2023-04-27T08:05:24.619Z,231.32
2023-04-27T08:06:24.853Z,231.58
2023-04-27T08:07:24.290Z,230.28
2023-04-27T08:08:24.353Z,231.72
2023-04-27T08:09:24.396Z,231.01
2023-04-27T08:10:24.478Z,231.46
2023-04-27T08:11:24.529Z,231.60
2023-04-27T08:12:24.528Z,230.00
2023-04-27T08:13:25.555Z,228.58
2023-04-27T08:14:24.643Z,228.99
2023-04-27T08:15:24.698Z,229.10
2023-04-27T08:16:24.948Z,228.63
2023-04-27T08:17:24.822Z,228.66
2023-04-27T08:18:24.865Z,228.24
2023-04-27T08:19:24.914Z,226.64
2023-04-27T08:20:24.977Z,227.21
2023-04-27T08:21:25.103Z,227.93
2023-04-27T08:22:25.080Z,229.12
2023-04-27T08:23:25.199Z,229.06
2023-04-27T08:24:25.162Z,230.55
2023-04-27T08:25:25.224Z,233.48
2023-04-27T08:26:26.409Z,238.04
2023-04-27T08:27:25.357Z,253.43
2023-04-27T08:28:25.396Z,251.65
2023-04-27T08:29:28.585Z,246.40
2023-04-27T08:30:25.484Z,247.06
2023-04-27T08:31:25.842Z,245.20
2023-04-27T08:32:25.429Z,239.84
2023-04-27T08:33:25.404Z,237.67
2023-04-27T08:34:25.406Z,233.47
2023-04-27T08:35:25.374Z,230.16
2023-04-27T08:36:25.368Z,226.45
2023-04-27T08:37:25.471Z,222.42
2023-04-27T08:38:25.734Z,219.23
2023-04-27T08:39:25.334Z,220.43
2023-04-27T08:40:25.345Z,226.11
2023-04-27T08:41:25.386Z,222.88
2023-04-27T08:42:25.402Z,208.77
2023-04-27T08:43:25.320Z,196.05
2023-04-27T08:44:25.310Z,198.70
2023-04-27T08:45:25.298Z,200.88
2023-04-27T08:46:25.364Z,202.30
2023-04-27T08:47:35.133Z,204.47
2023-04-27T08:48:26.335Z,204.57
2023-04-27T08:49:25.271Z,204.99
2023-04-27T08:50:25.307Z,205.54
2023-04-27T08:51:25.273Z,206.42
2023-04-27T08:52:25.254Z,208.58
2023-04-27T08:53:25.247Z,208.28
2023-04-27T08:54:25.235Z,208.38
2023-04-27T08:55:25.260Z,208.37
2023-04-27T08:56:25.307Z,208.76
2023-04-27T08:57:25.321Z,210.23
2023-04-27T08:58:25.342Z,210.40
2023-04-27T08:59:25.438Z,208.97
2023-04-27T09:00:25.472Z,209.97
2023-04-27T09:01:25.540Z,209.50
2023-04-27T09:02:25.732Z,209.55
2023-04-27T09:03:25.788Z,210.11
2023-04-27T09:04:25.778Z,209.08
2023-04-27T09:05:25.834Z,208.97
2023-04-27T09:06:25.876Z,209.75
2023-04-27T09:07:27.988Z,209.69
2023-04-27T09:08:25.835Z,209.64
2023-04-27T09:09:25.832Z,209.28
2023-04-27T09:10:25.853Z,208.59
2023-04-27T09:11:25.830Z,208.98
2023-04-27T09:12:25.799Z,208.73
2023-04-27T09:13:25.791Z,208.39
2023-04-27T09:14:25.796Z,207.40
2023-04-27T09:15:25.808Z,208.42
2023-04-27T09:16:25.828Z,208.13
2023-04-27T09:17:25.799Z,207.88
2023-04-27T09:18:25.782Z,207.83
2023-04-27T09:19:25.752Z,208.31
2023-04-27T09:20:25.735Z,207.44
2023-04-27T09:21:25.739Z,206.81
2023-04-27T09:22:25.714Z,207.23
2023-04-27T09:23:25.726Z,207.36
2023-04-27T09:24:25.714Z,207.04
2023-04-27T09:25:25.723Z,206.14
2023-04-27T09:26:25.731Z,207.07
2023-04-27T09:27:25.754Z,206.61
2023-04-27T09:28:25.679Z,206.59
2023-04-27T09:29:25.691Z,202.92
2023-04-27T09:30:25.656Z,193.73
2023-04-27T09:31:25.678Z,189.37
2023-04-27T09:32:25.691Z,185.61
2023-04-27T09:33:25.654Z,178.43
2023-04-27T09:34:25.660Z,174.50
2023-04-27T09:35:25.644Z,151.22
2023-04-27T09:36:25.633Z,151.10
2023-04-27T09:37:25.632Z,154.46
2023-04-27T09:38:26.305Z,155.46
2023-04-27T09:39:25.658Z,154.11
2023-04-27T09:40:25.603Z,159.28
2023-04-27T09:41:25.600Z,164.53
2023-04-27T09:42:25.596Z,163.58
2023-04-27T09:43:25.699Z,164.82
2023-04-27T09:44:25.684Z,166.67
2023-04-27T09:45:25.841Z,157.02
2023-04-27T09:46:25.593Z,149.62
2023-04-27T09:47:25.633Z,145.84
2023-04-27T09:48:25.794Z,140.16
2023-04-27T09:49:25.692Z,136.68
2023-04-27T09:50:25.723Z,139.60
2023-04-27T09:51:25.828Z,149.94
2023-04-27T09:52:26.033Z,150.49
2023-04-27T09:53:25.920Z,144.26
2023-04-27T09:54:26.069Z,146.22
2023-04-27T09:55:26.042Z,150.56
2023-04-27T09:56:26.088Z,153.76
2023-04-27T09:57:26.163Z,151.45
2023-04-27T09:58:26.204Z,149.20
2023-04-27T09:59:26.273Z,154.48
2023-04-27T10:00:26.328Z,156.54
2023-04-27T10:01:26.412Z,154.75
2023-04-27T10:02:26.504Z,155.11
2023-04-27T10:03:26.562Z,158.33
2023-04-27T10:04:26.672Z,160.16
2023-04-27T10:05:26.615Z,157.52
2023-04-27T10:06:26.642Z,150.24
2023-04-27T10:07:26.677Z,152.41
2023-04-27T10:08:26.733Z,154.10
2023-04-27T10:09:26.824Z,154.52
2023-04-27T10:10:26.825Z,156.69
2023-04-27T10:11:26.954Z,157.52
2023-04-27T10:12:26.962Z,158.22
2023-04-27T10:13:26.978Z,159.28
2023-04-27T10:14:27.050Z,158.11
2023-04-27T10:15:27.054Z,157.61
2023-04-27T10:16:27.168Z,151.50
2023-04-27T10:17:27.231Z,155.20
2023-04-27T10:18:27.317Z,156.65
2023-04-27T10:19:27.257Z,162.28
2023-04-27T10:20:27.261Z,165.34
2023-04-27T10:21:27.363Z,166.66
2023-04-27T10:22:27.337Z,168.12
2023-04-27T10:23:29.318Z,171.78
2023-04-27T10:24:27.427Z,173.50
2023-04-27T10:25:27.490Z,176.51
2023-04-27T10:26:27.533Z,170.34
2023-04-27T10:27:27.515Z,149.91
2023-04-27T10:28:27.552Z,160.36
2023-04-27T10:29:27.829Z,164.83
2023-04-27T10:30:28.336Z,160.10
2023-04-27T10:31:27.748Z,156.11
2023-04-27T10:32:27.847Z,151.10
2023-04-27T10:33:28.326Z,153.88
2023-04-27T10:34:28.602Z,150.72
2023-04-27T10:35:27.842Z,150.61
2023-04-27T10:36:27.930Z,152.18
2023-04-27T10:37:27.934Z,150.45
2023-04-27T10:38:27.947Z,151.95
2023-04-27T10:39:43.753Z,157.38
2023-04-27T10:40:29.011Z,157.57
2023-04-27T10:41:28.364Z,158.09
2023-04-27T10:42:28.016Z,159.41
2023-04-27T10:43:28.059Z,161.34
2023-04-27T10:44:27.967Z,165.69
2023-04-27T10:45:31.119Z,168.03
2023-04-27T10:46:28.062Z,168.08
2023-04-27T10:47:27.958Z,168.16
2023-04-27T10:48:27.939Z,169.50
2023-04-27T10:49:27.990Z,169.58
2023-04-27T10:50:27.929Z,169.70
2023-04-27T10:51:27.995Z,173.07
2023-04-27T10:52:27.961Z,172.18
2023-04-27T10:53:27.919Z,172.21
2023-04-27T10:54:27.883Z,171.78
2023-04-27T10:55:27.960Z,174.13
2023-04-27T10:56:27.938Z,174.49
2023-04-27T10:57:27.918Z,176.06
2023-04-27T10:58:37.777Z,176.18
2023-04-27T10:59:28.857Z,176.21
2023-04-27T11:00:27.861Z,176.69
2023-04-27T11:01:27.966Z,177.59
2023-04-27T11:02:27.958Z,178.96
2023-04-27T11:03:27.900Z,180.70
2023-04-27T11:04:27.834Z,180.99
2023-04-27T11:05:27.917Z,182.16
2023-04-27T11:06:27.898Z,180.45
2023-04-27T11:07:27.897Z,180.95
2023-04-27T11:08:27.821Z,183.25
2023-04-27T11:09:27.843Z,184.30
2023-04-27T11:10:27.788Z,183.68
2023-04-27T11:11:27.816Z,184.15
2023-04-27T11:12:27.770Z,185.34
2023-04-27T11:13:27.900Z,184.04
2023-04-27T11:14:27.796Z,181.75
2023-04-27T11:15:27.767Z,184.15
2023-04-27T11:16:28.059Z,184.67
2023-04-27T11:17:27.946Z,186.20
2023-04-27T11:18:27.978Z,185.20
2023-04-27T11:19:27.875Z,185.30
2023-04-27T11:20:27.910Z,186.47
2023-04-27T11:21:28.369Z,186.26
2023-04-27T11:22:28.055Z,187.98
2023-04-27T11:23:27.993Z,189.42
2023-04-27T11:24:28.387Z,189.81
2023-04-27T11:25:28.059Z,190.65
2023-04-27T11:26:28.376Z,191.04
2023-04-27T11:27:28.090Z,191.88
2023-04-27T11:28:28.159Z,192.73
2023-04-27T11:29:28.383Z,192.28
2023-04-27T11:30:28.203Z,192.59
2023-04-27T11:31:28.423Z,193.29
2023-04-27T11:32:28.290Z,194.55
2023-04-27T11:33:28.307Z,193.90
2023-04-27T11:34:28.322Z,193.08
2023-04-27T11:35:28.411Z,193.61
2023-04-27T11:36:28.406Z,195.34
2023-04-27T11:37:28.429Z,194.39
2023-04-27T11:38:28.483Z,194.96
2023-04-27T11:39:28.653Z,194.29
2023-04-27T11:40:28.593Z,194.98
2023-04-27T11:41:28.547Z,196.47
2023-04-27T11:42:28.754Z,196.88
2023-04-27T11:43:28.632Z,195.98
2023-04-27T11:44:28.663Z,196.41
2023-04-27T11:45:28.679Z,197.01
2023-04-27T11:46:28.727Z,197.06
2023-04-27T11:47:28.900Z,196.29
2023-04-27T11:48:28.808Z,196.00
2023-04-27T11:49:28.799Z,196.66
2023-04-27T11:50:28.871Z,196.24
2023-04-27T11:51:28.849Z,195.82
2023-04-27T11:52:28.918Z,196.77
2023-04-27T11:53:28.941Z,196.44
2023-04-27T11:54:28.999Z,196.96
2023-04-27T11:55:29.069Z,195.54
2023-04-27T11:56:29.048Z,195.37
2023-04-27T11:57:29.125Z,196.62
2023-04-27T11:58:29.129Z,195.79
2023-04-27T11:59:29.193Z,194.30
2023-04-27T12:00:29.175Z,196.54
2023-04-27T12:01:37.589Z,196.10
2023-04-27T12:02:30.355Z,196.14
2023-04-27T12:03:29.441Z,194.75
2023-04-27T12:04:29.502Z,195.54
2023-04-27T12:05:29.310Z,194.43
2023-04-27T12:06:33.274Z,194.35
2023-04-27T12:07:29.192Z,196.14
2023-04-27T12:08:29.178Z,196.15
2023-04-27T12:09:29.164Z,196.12
2023-04-27T12:10:29.171Z,195.78
2023-04-27T12:11:29.156Z,195.58
2023-04-27T12:12:29.157Z,194.50
2023-04-27T12:13:29.152Z,194.09
2023-04-27T12:14:29.328Z,193.90
2023-04-27T12:15:29.167Z,194.25
2023-04-27T12:16:29.185Z,193.47
2023-04-27T12:17:29.167Z,195.13
2023-04-27T12:18:29.095Z,194.96
2023-04-27T12:19:29.107Z,193.77
2023-04-27T12:20:29.132Z,193.66
2023-04-27T12:21:29.100Z,194.91
2023-04-27T12:22:29.109Z,194.28
2023-04-27T12:23:29.115Z,193.76
2023-04-27T12:24:29.234Z,193.61
2023-04-27T12:25:29.109Z,193.44
2023-04-27T12:26:29.117Z,194.79
2023-04-27T12:27:29.099Z,193.19
2023-04-27T12:28:29.155Z,193.30